TimeMDT,TemperatureF,Dew PointF,Humidity,Sea Level PressureIn,VisibilityMPH,Wind Direction,Wind SpeedMPH,Gust SpeedMPH,PrecipitationIn,Events,Conditions,WindDirDegrees,DateUTC
12:53 AM,25.0,18.0,75,29.99,10.0,NW,11.5,21.9,N/A,,Overcast,320,2013-09-28 06:53:00
1:53 AM,25.0,16.0,69,30.00,10.0,NNW,16.1,24.2,N/A,,Overcast,340,2013-09-28 07:53:00
2:50 AM,24.8,15.8,69,30.23,10.0,NNW,12.7,24.2,N/A,,Overcast,330,2013-09-28 08:50:00
2:53 AM,24.1,15.1,69,30.02,10.0,NW,18.4,26.5,N/A,,Overcast,310,2013-09-28 08:53:00
3:24 AM,24.8,15.8,69,30.24,10.0,NW,10.4,18.4,N/A,,Scattered Clouds,320,2013-09-28 09:24:00
3:53 AM,21.9,15.1,75,30.07,10.0,NE,5.8,-,N/A,,Scattered Clouds,40,2013-09-28 09:53:00
4:53 AM,19.9,14.0,78,30.12,10.0,ENE,3.5,-,N/A,,Partly Cloudy,60,2013-09-28 10:53:00
5:53 AM,18.0,12.9,81,30.18,10.0,NNE,6.9,-,N/A,,Clear,30,2013-09-28 11:53:00
6:53 AM,18.0,12.9,81,30.24,10.0,NE,8.1,-,N/A,,Clear,40,2013-09-28 12:53:00
7:53 AM,19.9,12.9,74,30.23,10.0,NNE,9.2,-,N/A,,Clear,20,2013-09-28 13:53:00
8:53 AM,26.1,16.0,66,30.23,10.0,North,12.7,-,N/A,,Clear,360,2013-09-28 14:53:00
9:53 AM,32.0,12.0,44,30.19,10.0,North,9.2,-,N/A,,Clear,350,2013-09-28 15:53:00
10:53 AM,37.0,10.0,33,30.14,10.0,North,16.1,23.0,N/A,,Clear,10,2013-09-28 16:53:00
11:53 AM,41.0,18.0,40,30.12,10.0,NW,11.5,-,N/A,,Clear,310,2013-09-28 17:53:00
12:53 PM,46.0,19.0,34,30.07,10.0,NW,10.4,-,N/A,,Clear,310,2013-09-28 18:53:00
1:53 PM,46.9,21.0,36,30.08,10.0,NNW,13.8,23.0,N/A,,Clear,340,2013-09-28 19:53:00
2:53 PM,48.0,21.9,36,30.08,10.0,NNW,17.3,20.7,N/A,,Clear,330,2013-09-28 20:53:00
3:53 PM,50.0,19.0,29,30.09,10.0,NNW,13.8,20.7,N/A,,Clear,340,2013-09-28 21:53:00
4:53 PM,50.0,21.0,32,30.11,10.0,NNW,8.1,-,N/A,,Clear,330,2013-09-28 22:53:00
5:53 PM,48.0,24.1,39,30.15,10.0,NNW,11.5,-,N/A,,Clear,340,2013-09-28 23:53:00
6:53 PM,42.1,23.0,47,30.21,10.0,NNW,4.6,-,N/A,,Clear,330,2013-09-29 00:53:00
7:53 PM,37.0,24.1,59,30.23,10.0,NE,8.1,-,N/A,,Clear,40,2013-09-29 01:53:00
8:53 PM,35.1,23.0,61,30.21,10.0,Variable,3.5,-,N/A,,Clear,0,2013-09-29 02:53:00
9:53 PM,32.0,21.0,64,30.19,10.0,NE,8.1,-,N/A,,Clear,40,2013-09-29 03:53:00
10:53 PM,28.9,21.9,75,30.19,10.0,NNE,3.5,-,N/A,,Clear,20,2013-09-29 04:53:00
11:53 PM,32.0,19.9,61,30.12,10.0,Calm,Calm,-,N/A,,Clear,0,2013-09-29 05:53:00